TimeMDT,TemperatureF,Dew PointF,Humidity,Sea Level PressureIn,VisibilityMPH,Wind Direction,Wind SpeedMPH,Gust SpeedMPH,PrecipitationIn,Events,Conditions,WindDirDegrees,DateUTC
12:18 AM,66.2,55.4,68,30.44,10.0,NNE,26.5,33.4,N/A,,Mostly Cloudy,20,2013-06-29 06:18:00
12:54 AM,64.0,52.0,65,30.15,10.0,North,19.6,-,0.01,,Mostly Cloudy,10,2013-06-29 06:54:00
1:16 AM,64.4,53.6,68,30.42,10.0,NW,16.1,26.5,0.00,Rain,Light Rain,310,2013-06-29 07:16:00
1:54 AM,64.0,54.0,70,30.06,10.0,NNW,18.4,-,0.00,,Mostly Cloudy,330,2013-06-29 07:54:00
2:29 AM,64.4,53.6,68,30.31,10.0,WNW,16.1,24.2,N/A,,Scattered Clouds,300,2013-06-29 08:29:00
2:54 AM,64.0,53.1,67,30.01,10.0,NNW,6.9,-,N/A,,Mostly Cloudy,340,2013-06-29 08:54:00
3:54 AM,64.9,50.0,58,30.05,10.0,Calm,Calm,-,N/A,,Scattered Clouds,0,2013-06-29 09:54:00
4:54 AM,62.1,52.0,70,30.06,10.0,SE,5.8,-,N/A,,Mostly Cloudy,140,2013-06-29 10:54:00
5:54 AM,62.1,54.0,75,30.08,10.0,ESE,3.5,-,N/A,,Mostly Cloudy,120,2013-06-29 11:54:00
6:54 AM,64.0,54.0,70,30.08,10.0,Calm,Calm,-,N/A,,Mostly Cloudy,0,2013-06-29 12:54:00
7:54 AM,66.9,52.0,59,30.06,10.0,South,6.9,-,N/A,,Mostly Cloudy,170,2013-06-29 13:54:00
8:54 AM,71.1,52.0,51,30.06,10.0,SSW,8.1,-,N/A,,Mostly Cloudy,200,2013-06-29 14:54:00
9:54 AM,73.0,52.0,48,30.06,10.0,South,6.9,-,N/A,,Scattered Clouds,170,2013-06-29 15:54:00
10:54 AM,73.9,50.0,43,30.05,10.0,SSW,10.4,-,N/A,,Mostly Cloudy,210,2013-06-29 16:54:00
11:54 AM,78.1,50.0,37,30.03,10.0,SSW,6.9,-,N/A,,Mostly Cloudy,210,2013-06-29 17:54:00
12:54 PM,77.0,48.9,37,30.04,10.0,Calm,Calm,-,N/A,,Mostly Cloudy,0,2013-06-29 18:54:00
1:54 PM,81.0,48.0,31,30.00,10.0,SSE,6.9,-,N/A,,Mostly Cloudy,150,2013-06-29 19:54:00
2:30 PM,80.6,48.2,32,30.27,10.0,Calm,Calm,-,N/A,Thunderstorm,Thunderstorm,0,2013-06-29 20:30:00
2:54 PM,77.0,51.1,40,30.01,10.0,West,4.6,-,0.00,Rain-Thunderstorm,Light Thunderstorms and Rain,270,2013-06-29 20:54:00
3:13 PM,73.4,60.8,65,30.27,10.0,West,5.8,-,0.00,Rain-Thunderstorm,Light Thunderstorms and Rain,270,2013-06-29 21:13:00
3:44 PM,73.4,55.4,53,30.28,10.0,NW,6.9,-,0.00,,Mostly Cloudy,320,2013-06-29 21:44:00
3:54 PM,75.0,55.9,51,30.03,10.0,NW,8.1,-,0.00,,Mostly Cloudy,310,2013-06-29 21:54:00
4:29 PM,73.4,53.6,50,30.28,6.0,NW,19.6,26.5,0.00,Rain-Hail-Thunderstorm,Thunderstorms with Hail,320,2013-06-29 22:29:00
4:38 PM,71.6,51.8,50,30.27,7.0,NE,9.2,24.2,0.08,Rain-Thunderstorm,Light Thunderstorms and Rain,50,2013-06-29 22:38:00
4:54 PM,68.0,57.9,70,30.03,10.0,East,5.8,-,0.08,,Overcast,100,2013-06-29 22:54:00
5:54 PM,78.1,55.0,45,29.99,10.0,East,11.5,18.4,N/A,,Mostly Cloudy,90,2013-06-29 23:54:00
6:54 PM,72.0,55.9,57,30.01,10.0,ESE,5.8,-,N/A,,Mostly Cloudy,120,2013-06-30 00:54:00
7:54 PM,71.1,55.9,59,30.00,10.0,NNW,3.5,-,N/A,,Mostly Cloudy,340,2013-06-30 01:54:00
8:54 PM,71.1,55.0,57,29.99,10.0,North,3.5,-,N/A,,Mostly Cloudy,360,2013-06-30 02:54:00
9:54 PM,69.1,53.1,57,30.01,10.0,NW,6.9,-,N/A,,Scattered Clouds,320,2013-06-30 03:54:00
10:54 PM,68.0,53.1,59,30.01,10.0,NNW,4.6,-,N/A,,Partly Cloudy,330,2013-06-30 04:54:00
11:54 PM,66.9,50.0,54,30.00,10.0,Calm,Calm,-,N/A,,Clear,0,2013-06-30 05:54:00